Flight Track Log - Related Links

Times and Time Zones

All times are in EDT time to prevent confusion due to time zone crossing. See the SWA631 flight status page for this flight to view local times or setup timezone preferences in your user account.

Time Position Orientation Groundspeed Altitude Reporting Facility
EDT Latitude Longitude Course Direction KTS MPH feet Rate Location/Type
Fri 07:24:51 AM 41.7667 -87.8167 263° West 179 206 3,300  Level Chicago TRACON
Fri 07:25:45 AM 41.7500 -87.8833 251° West 242 278 5,500 3,000 Climbing Chicago TRACON
Fri 07:26:45 AM 41.7500 -87.9833 270° West 277 319 9,000 3,339 Climbing Chicago TRACON
Fri 07:27:40 AM 41.7500 -88.0833 270° West 283 326 11,900 1,624 Climbing Chicago TRACON
Fri 07:28:58 AM 41.7419 -88.2197 266° West 305 351 12,600 1,295 Climbing Chicago Center
Fri 07:29:59 AM 41.7400 -88.3583 269° West 373 429 14,900 2,361 Climbing Chicago Center
Fri 07:30:00 AM 41.7276 -88.6500 263° West  Level FlightAware Approximate
Fri 07:31:00 AM 41.7456 -88.5025 273° West 391 450 17,400  Level Chicago Center
Fri 07:32:02 AM 41.7506 -88.6564 273° West 414 476 19,600 2,244 Climbing Chicago Center
Fri 07:33:03 AM 41.7553 -88.8139 272° West 425 489 22,000 2,361 Climbing Chicago Center
Fri 07:34:04 AM 41.7622 -89.0094 273° West 439 505 24,400 1,951 Climbing Chicago Center
Fri 07:35:06 AM 41.7489 -89.1769 264° West 453 521 26,000 2,000 Climbing Chicago Center
Fri 07:36:07 AM 41.7364 -89.3489 264° West 464 534 28,500 2,262 Climbing Chicago Center
Fri 07:37:08 AM 41.7228 -89.5133 264° West 456 525 30,600 1,854 Climbing Chicago Center
Fri 07:38:10 AM 41.7108 -89.6786 265° West 451 519 32,300 1,610 Climbing Chicago Center
Fri 07:39:11 AM 41.6972 -89.8464 264° West 453 521 33,900 1,512 Climbing Chicago Center
Fri 07:40:13 AM 41.6839 -90.0128 264° West 454 522 35,400 1,366 Climbing Chicago Center
Fri 07:41:14 AM 41.6706 -90.1767 264° West 450 518 36,700 1,279 Climbing Chicago Center
Fri 07:42:15 AM 41.6522 -90.3800 263° West 464 534 38,000 634 Climbing Chicago Center
Fri 07:43:17 AM 41.6383 -90.5483 264° West 460 529 38,000  Level Chicago Center
Fri 07:44:18 AM 41.6219 -90.7125 262° West 455 524 38,000  Level Chicago Center
Fri 07:45:20 AM 41.6083 -90.8786 264° West 452 520 38,000  Level Chicago Center
Fri 07:46:21 AM 41.5928 -91.0458 263° West 455 524 38,000 295 Level Chicago Center
Fri 07:47:22 AM 41.5756 -91.2125 262° West 457 526 38,600 634 Climbing Chicago Center
Fri 07:48:24 AM 41.5581 -91.3811 262° West 461 531 39,300 683 Climbing Chicago Center
Fri 07:49:25 AM 41.5369 -91.5864 262° West 467 537 40,000 341 Climbing Chicago Center
Fri 07:50:27 AM 41.5194 -91.7578 262° West 469 540 40,000  Level Chicago Center
Fri 07:51:28 AM 41.5006 -91.9261 262° West 464 534 40,000  Level Chicago Center
Fri 07:52:30 AM 41.4825 -92.0953 262° West 463 533 40,000  Level Chicago Center
Fri 07:53:31 AM 41.4639 -92.2628 262° West 461 531 40,000  Level Chicago Center
Fri 07:54:33 AM 41.4456 -92.4306 262° West 456 525 40,000  Level Chicago Center
Fri 07:55:34 AM 41.4258 -92.5967 261° West 458 527 40,000  Level Chicago Center
Fri 07:56:12 AM 41.4122 -92.7297 262° West 457 526 40,000  Level Minneapolis Center
Fri 07:57:13 AM 41.3917 -92.8953 261° West 457 526 40,000  Level Minneapolis Center
Fri 07:58:14 AM 41.3728 -93.0628 262° West 460 529 40,000  Level Minneapolis Center
Fri 07:59:15 AM 41.3528 -93.2311 261° West 463 533 40,000  Level Minneapolis Center
Fri 08:00:17 AM 41.3317 -93.3989 261° West 464 534 40,000  Level Minneapolis Center
Fri 08:01:18 AM 41.3117 -93.5678 261° West 467 537 40,000  Level Minneapolis Center
Fri 08:02:19 AM 41.2917 -93.7364 261° West 467 537 40,000  Level Minneapolis Center
Fri 08:03:20 AM 41.2653 -93.9456 261° West 480 552 40,000  Level Minneapolis Center
Fri 08:04:21 AM 41.2439 -94.1208 261° West 485 558 40,000  Level Minneapolis Center
Fri 08:05:23 AM 41.2186 -94.3097 260° West 486 559 40,000  Level Minneapolis Center
Fri 08:06:24 AM 41.1964 -94.4858 261° West 484 557 40,000  Level Minneapolis Center
Fri 08:07:25 AM 41.1739 -94.6628 260° West 486 559 40,000  Level Minneapolis Center
Fri 08:08:26 AM 41.1475 -94.8403 259° West 488 562 40,000  Level Minneapolis Center
Fri 08:09:28 AM 41.1244 -95.0158 260° West 485 558 40,000  Level Minneapolis Center
Fri 08:10:29 AM 41.1000 -95.1903 260° West 481 554 40,000  Level Minneapolis Center
Fri 08:11:30 AM 41.0744 -95.3628 259° West 476 548 40,000  Level Minneapolis Center
Fri 08:12:31 AM 41.0508 -95.5347 260° West 473 544 40,000  Level Minneapolis Center
Fri 08:13:32 AM 41.0253 -95.7008 259° West 464 534 40,000  Level Minneapolis Center
Fri 08:14:34 AM 41.0022 -95.8672 260° West 458 527 40,000  Level Minneapolis Center
Fri 08:15:35 AM 40.9792 -96.0336 260° West 456 525 40,000  Level Minneapolis Center
Fri 08:16:36 AM 40.9558 -96.1947 259° West 445 512 40,000  Level Minneapolis Center
Fri 08:17:38 AM 40.9322 -96.3544 259° West 441 507 40,000  Level Minneapolis Center
Fri 08:18:39 AM 40.9078 -96.5122 258° West 438 504 40,000  Level Minneapolis Center
Fri 08:19:40 AM 40.8797 -96.7019 259° West 437 503 40,000  Level Minneapolis Center
Fri 08:20:42 AM 40.8558 -96.8592 259° West 436 502 40,000  Level Minneapolis Center
Fri 08:21:43 AM 40.8322 -97.0147 259° West 433 498 40,000  Level Minneapolis Center
Fri 08:22:44 AM 40.8081 -97.1700 258° West 433 498 40,000  Level Minneapolis Center
Fri 08:23:46 AM 40.7828 -97.3275 258° West 436 502 40,000  Level Minneapolis Center
Fri 08:24:47 AM 40.7592 -97.4778 258° West 437 503 40,000  Level Minneapolis Center
Fri 08:25:48 AM 40.7347 -97.6331 258° West 434 499 40,000  Level Minneapolis Center
Fri 08:26:50 AM 40.7089 -97.7889 258° West 433 498 40,000  Level Minneapolis Center
Fri 08:27:51 AM 40.6789 -97.9736 258° West 431 496 40,000  Level Minneapolis Center
Fri 08:28:53 AM 40.6544 -98.1261 258° West 427 491 40,000  Level Minneapolis Center
Fri 08:29:54 AM 40.6294 -98.2769 258° West 422 486 40,000  Level Minneapolis Center
Fri 08:30:55 AM 40.6058 -98.4283 258° West 421 484 40,000  Level Minneapolis Center
Fri 08:31:57 AM 40.6169 -98.5811 276° West 422 486 40,000  Level Minneapolis Center
Fri 08:32:58 AM 40.6308 -98.7336 277° West 418 481 40,000  Level Minneapolis Center
Fri 08:34:00 AM 40.6453 -98.8867 277° West 419 482 40,000  Level Minneapolis Center
Fri 08:35:01 AM 40.6578 -99.0394 276° West 418 481 40,000  Level Minneapolis Center
Fri 08:36:03 AM 40.6706 -99.1914 276° West 416 479 40,000  Level Minneapolis Center
Fri 08:37:04 AM 40.6833 -99.3447 276° West 417 480 40,000  Level Minneapolis Center
Fri 08:38:06 AM 40.6975 -99.4986 277° West 420 483 40,000  Level Minneapolis Center
Fri 08:39:07 AM 40.7097 -99.6519 276° West 420 483 40,000  Level Minneapolis Center
Fri 08:40:09 AM 40.7242 -99.8353 276° West 419 482 40,000  Level Minneapolis Center
Fri 08:41:10 AM 40.7364 -99.9883 276° West 418 481 40,000  Level Minneapolis Center
Fri 08:42:12 AM 40.7489 -100.1408 276° West 418 481 40,000  Level Minneapolis Center
Fri 08:43:14 AM 40.7611 -100.2944 276° West 420 483 40,000  Level Minneapolis Center
Fri 08:44:15 AM 40.7714 -100.4464 275° West 418 481 40,000  Level Minneapolis Center
Fri 08:45:17 AM 40.7794 -100.5994 274° West 418 481 40,000  Level Minneapolis Center
Fri 08:46:26 AM 40.7386 -100.7886 254° West 428 493 40,000  Level Denver Center
Fri 08:47:27 AM 40.7161 -100.9347 259° West 422 486 40,000  Level Denver Center
Fri 08:48:28 AM 40.6925 -101.0803 258° West 422 486 40,000  Level Denver Center
Fri 08:49:29 AM 40.6636 -101.2494 257° West 424 488 40,000  Level Denver Center
Fri 08:50:30 AM 40.6400 -101.3947 258° West 425 489 40,000  Level Denver Center
Fri 08:51:31 AM 40.6153 -101.5394 257° West 424 488 40,000  Level Denver Center
Fri 08:52:32 AM 40.5869 -101.7092 258° West 425 489 40,000  Level Denver Center
Fri 08:53:33 AM 40.5614 -101.8553 257° West 428 493 40,000  Level Denver Center
Fri 08:54:35 AM 40.5369 -102.0008 258° West 427 491 40,000  Level Denver Center
Fri 08:55:35 AM 40.5167 -102.1197 257° West 419 482 40,000  Level Denver Center
Fri 08:56:37 AM 40.4836 -102.3033 257° West 406 467 40,000 -49 Level Denver Center
Fri 08:57:38 AM 40.4589 -102.4422 257° West 408 470 39,900 -1,180 Descending Denver Center
Fri 08:58:39 AM 40.4317 -102.5989 257° West 397 457 37,600 -2,410 Descending Denver Center
Fri 08:59:40 AM 40.4053 -102.7444 257° West 394 453 35,000 -2,656 Descending Denver Center
Fri 09:00:41 AM 40.3789 -102.8900 257° West 409 471 32,200 -2,557 Descending Denver Center
Fri 09:01:42 AM 40.3519 -103.0417 257° West 426 490 29,800 -2,311 Descending Denver Center
Fri 09:02:43 AM 40.3242 -103.1883 256° West 419 482 27,500 -2,262 Descending Denver Center
Fri 09:03:44 AM 40.2981 -103.3336 257° West 412 474 25,200 -1,967 Descending Denver Center
Fri 09:04:45 AM 40.2767 -103.4439 256° West 399 459 23,500 -2,066 Descending Denver Center
Fri 09:05:46 AM 40.2469 -103.6058 257° West 384 442 21,000 -2,361 Descending Denver Center
Fri 09:06:47 AM 40.2197 -103.7486 256° West 377 434 18,700 -1,623 Descending Denver Center
Fri 09:07:48 AM 40.2017 -103.8656 259° West 323 372 17,700 -1,561 Descending Denver Center
Fri 09:08:50 AM 40.2142 -103.9950 277° West 336 387 15,500 -1,623 Descending Denver Center
Fri 09:09:50 AM 40.2231 -104.1050 276° West 310 357 14,400 -1,180 Descending Denver Center
Fri 09:10:52 AM 40.2339 -104.2125 278° West 303 349 13,100 -1,317 Descending Denver Center
Fri 09:11:53 AM 40.2433 -104.3153 277° West 288 331 11,700 -1,082 Descending Denver Center
Fri 09:12:54 AM 40.2536 -104.4236 277° West 283 326 10,900 -1,279 Descending Denver Center
Fri 09:13:55 AM 40.2264 -104.5119 248° West 275 316 9,100 -1,475 Descending Denver Center
Fri 09:14:56 AM 40.1617 -104.5658 212° Southwest 275 316 7,900 -984 Descending Denver Center
Fri 09:15:57 AM 40.0953 -104.6147 209° Southwest 273 314 7,100 -443 Descending Denver Center
Fri 09:16:58 AM 40.0333 -104.6606 210° Southwest 227 261 7,000 -49 Descending Denver Center
Fri 09:17:59 AM 39.9889 -104.6858 204° Southwest 173 199 7,000 -393 Level Denver Center
Fri 09:19:00 AM 39.9431 -104.6861 180° South 163 188 6,200 -787 Descending Denver Center
Fri 09:20:01 AM 39.9008 -104.6867 181° South 154 177 5,400 -787 Descending Denver Center
Fri 09:22:00 AM 39.8617 -104.6732 North  Level Estimated
Fri 09:29:00 AM 39.8617 -104.6732 North  Level Estimated
Fri 09:30:00 AM 39.8617 -104.6732 North  Level Estimated

Login

Don't have an account? Register now (free) for customized features, flight alerts, and more!